createdAt,value
2022-10-17T00:01:14.626Z,2.80
2022-10-17T00:03:43.145Z,2.92
2022-10-17T00:06:13.451Z,3.25
2022-10-17T00:08:43.187Z,2.90
2022-10-17T00:11:15.659Z,3.05
2022-10-17T00:13:44.013Z,3.08
2022-10-17T00:16:13.848Z,3.00
2022-10-17T00:18:42.175Z,3.50
2022-10-17T00:21:16.750Z,3.42
2022-10-17T00:26:13.102Z,3.20
2022-10-17T00:28:41.563Z,3.55
2022-10-17T00:31:13.546Z,3.30
2022-10-17T00:33:43.110Z,2.90
2022-10-17T00:36:14.605Z,3.20
2022-10-17T00:38:44.717Z,3.17
2022-10-17T00:41:16.130Z,3.15
2022-10-17T00:43:53.978Z,3.55
2022-10-17T00:46:25.735Z,3.30
2022-10-17T00:48:57.157Z,3.35
2022-10-17T00:51:32.196Z,3.58
2022-10-17T00:54:01.219Z,3.65
2022-10-17T00:56:30.769Z,3.33
2022-10-17T00:59:00.787Z,3.53
2022-10-17T01:01:30.707Z,3.65
2022-10-17T01:03:59.887Z,3.75
2022-10-17T01:06:28.275Z,3.70
2022-10-17T01:08:57.138Z,3.85
2022-10-17T01:11:36.915Z,3.53
2022-10-17T01:14:10.163Z,4.03
2022-10-17T01:16:49.021Z,3.45
2022-10-17T01:19:44.326Z,3.47
2022-10-17T01:22:20.422Z,3.72
2022-10-17T01:25:03.156Z,3.50
2022-10-17T01:28:07.016Z,3.80
2022-10-17T01:31:00.519Z,3.80
2022-10-17T01:33:42.381Z,3.28
2022-10-17T01:36:16.414Z,3.90
2022-10-17T01:38:48.700Z,3.63
2022-10-17T01:41:28.379Z,3.60
2022-10-17T01:44:01.369Z,3.83
2022-10-17T01:46:36.537Z,3.50
2022-10-17T01:49:06.806Z,3.60
2022-10-17T01:51:39.860Z,3.65
2022-10-17T01:54:15.120Z,3.50
2022-10-17T01:56:45.051Z,3.10
2022-10-17T01:59:18.247Z,3.40
2022-10-17T02:01:50.563Z,3.72
2022-10-17T02:04:19.779Z,3.72
2022-10-17T02:06:48.062Z,3.55
2022-10-17T02:09:20.008Z,3.70
2022-10-17T02:12:12.678Z,3.88
2022-10-17T02:14:54.207Z,3.83
2022-10-17T02:17:40.294Z,3.30
2022-10-17T02:20:18.289Z,3.60
2022-10-17T02:22:51.539Z,3.25
2022-10-17T02:25:28.549Z,3.35
2022-10-17T02:28:03.889Z,3.10
2022-10-17T02:30:37.900Z,3.28
2022-10-17T02:33:12.389Z,3.53
2022-10-17T02:35:44.494Z,3.45
2022-10-17T02:38:14.621Z,3.58
2022-10-17T02:40:46.682Z,3.40
2022-10-17T02:43:16.138Z,3.63
2022-10-17T02:45:44.670Z,3.40
2022-10-17T02:48:20.974Z,3.30
2022-10-17T02:50:58.805Z,3.88
2022-10-17T02:53:34.359Z,3.45
2022-10-17T02:56:09.919Z,3.42
2022-10-17T02:58:40.569Z,3.67
2022-10-17T03:01:09.155Z,3.75
2022-10-17T03:03:39.156Z,3.50
2022-10-17T03:06:07.455Z,3.65
2022-10-17T03:08:35.745Z,3.55
2022-10-17T03:11:04.251Z,3.25
2022-10-17T03:13:35.009Z,3.50
2022-10-17T03:16:06.290Z,3.10
2022-10-17T03:18:34.750Z,3.28
2022-10-17T03:21:05.951Z,3.63
2022-10-17T03:23:34.936Z,3.65
2022-10-17T03:26:05.381Z,3.70
2022-10-17T03:28:35.609Z,3.60
2022-10-17T03:31:08.434Z,3.42
2022-10-17T03:33:38.110Z,4.00
2022-10-17T03:36:08.983Z,3.55
2022-10-17T03:38:38.391Z,3.45
2022-10-17T03:41:08.239Z,3.53
2022-10-17T03:43:38.642Z,3.53
2022-10-17T03:46:08.461Z,3.80
2022-10-17T03:48:38.008Z,3.42
2022-10-17T03:51:10.332Z,3.70
2022-10-17T03:53:46.330Z,2.95
2022-10-17T03:56:17.224Z,3.40
2022-10-17T03:58:48.017Z,3.50
2022-10-17T04:01:19.571Z,3.60
2022-10-17T04:03:50.768Z,3.75
2022-10-17T04:06:22.216Z,3.63
2022-10-17T04:08:51.114Z,3.08
2022-10-17T04:11:26.609Z,3.15
2022-10-17T04:14:00.272Z,3.20
2022-10-17T04:16:30.263Z,3.40
2022-10-17T04:19:05.115Z,3.40
2022-10-17T04:21:41.721Z,3.47
2022-10-17T04:24:12.678Z,3.60
2022-10-17T04:26:46.871Z,3.30
2022-10-17T04:29:16.630Z,3.75
2022-10-17T04:31:46.991Z,3.80
2022-10-17T04:34:31.950Z,3.47
2022-10-17T04:37:01.663Z,3.20
2022-10-17T04:39:30.679Z,3.58
2022-10-17T04:41:59.656Z,3.30
2022-10-17T04:44:30.797Z,3.03
2022-10-17T04:47:00.548Z,3.42
2022-10-17T04:49:29.022Z,3.42
2022-10-17T04:52:05.274Z,3.30
2022-10-17T04:54:42.460Z,3.30
2022-10-17T04:57:12.354Z,3.58
2022-10-17T04:59:42.114Z,3.47
2022-10-17T05:02:19.637Z,3.22
2022-10-17T05:04:48.558Z,3.00
2022-10-17T05:07:19.127Z,3.10
2022-10-17T05:09:59.829Z,3.40
2022-10-17T05:12:28.479Z,3.38
2022-10-17T05:14:56.950Z,3.58
2022-10-17T05:17:47.226Z,3.00
2022-10-17T05:20:35.451Z,3.08
2022-10-17T05:23:23.871Z,3.47
2022-10-17T05:26:11.941Z,3.50
2022-10-17T05:28:40.913Z,3.45
2022-10-17T05:31:11.349Z,3.20
2022-10-17T05:33:40.737Z,3.08
2022-10-17T05:36:09.752Z,2.83
2022-10-17T05:38:39.618Z,3.25
2022-10-17T05:41:08.684Z,3.28
2022-10-17T05:43:37.054Z,3.50
2022-10-17T05:46:06.881Z,3.47
2022-10-17T05:48:36.589Z,3.10
2022-10-17T05:51:07.806Z,3.25
2022-10-17T05:53:40.867Z,3.85
2022-10-17T05:56:14.406Z,3.38
2022-10-17T05:58:50.141Z,3.40
2022-10-17T06:01:33.382Z,3.60
2022-10-17T06:04:01.823Z,3.10
2022-10-17T06:06:30.148Z,3.20
2022-10-17T06:08:59.848Z,4.03
2022-10-17T06:11:33.430Z,3.65
2022-10-17T06:14:02.117Z,3.00
2022-10-17T06:16:31.788Z,3.20
2022-10-17T06:19:00.821Z,3.20
2022-10-17T06:21:29.481Z,3.20
2022-10-17T06:24:09.294Z,3.05
2022-10-17T06:26:39.742Z,3.00
2022-10-17T06:29:09.941Z,3.03
2022-10-17T06:31:44.796Z,2.92
2022-10-17T06:34:13.385Z,2.90
2022-10-17T06:36:42.346Z,2.90
2022-10-17T06:39:13.244Z,2.75
2022-10-17T06:42:04.932Z,2.80
2022-10-17T06:44:59.104Z,2.97
2022-10-17T06:47:39.222Z,2.88
2022-10-17T06:50:27.596Z,2.92
2022-10-17T06:53:07.762Z,2.90
2022-10-17T06:56:11.723Z,2.83
2022-10-17T06:58:50.789Z,2.75
2022-10-17T07:01:39.798Z,2.85
2022-10-17T07:04:10.289Z,2.55
2022-10-17T07:06:39.741Z,3.00
2022-10-17T07:09:15.037Z,3.00
2022-10-17T07:11:44.746Z,2.95
2022-10-17T07:14:13.270Z,2.97
2022-10-17T07:16:41.526Z,3.17
2022-10-17T07:19:17.004Z,3.05
2022-10-17T07:21:45.366Z,2.95
2022-10-17T07:24:14.423Z,3.00
2022-10-17T07:26:48.509Z,3.15
2022-10-17T07:29:17.212Z,3.30
2022-10-17T07:31:53.320Z,2.85
2022-10-17T07:34:22.425Z,3.13
2022-10-17T07:36:52.453Z,3.20
2022-10-17T07:39:20.837Z,3.10
2022-10-17T07:41:51.464Z,3.40
2022-10-17T07:44:20.688Z,3.40
2022-10-17T07:46:51.815Z,3.55
2022-10-17T07:49:20.543Z,3.13
2022-10-17T07:51:49.134Z,3.33
2022-10-17T07:54:17.436Z,3.15
2022-10-17T07:56:50.284Z,3.42
2022-10-17T07:59:20.345Z,2.95
2022-10-17T08:01:48.660Z,3.10
2022-10-17T08:04:17.426Z,3.40
2022-10-17T08:06:45.735Z,3.30
2022-10-17T08:09:14.045Z,3.30
2022-10-17T08:11:43.850Z,3.50
2022-10-17T08:14:13.079Z,3.10
2022-10-17T08:16:42.752Z,3.40
2022-10-17T08:19:12.969Z,3.30
2022-10-17T08:21:43.596Z,3.20
2022-10-17T08:24:11.906Z,3.20
2022-10-17T08:26:43.390Z,3.10
2022-10-17T08:29:14.117Z,3.03
2022-10-17T08:31:47.734Z,3.33
2022-10-17T08:34:17.392Z,3.10
2022-10-17T08:36:45.679Z,3.00
2022-10-17T08:39:13.946Z,2.90
2022-10-17T08:41:55.075Z,3.25
2022-10-17T08:44:37.360Z,3.20
2022-10-17T08:47:13.515Z,3.10
2022-10-17T08:49:47.086Z,3.03
2022-10-17T08:52:21.449Z,2.60
2022-10-17T08:54:51.906Z,2.88
2022-10-17T08:57:20.421Z,3.10
2022-10-17T08:59:52.116Z,2.95
2022-10-17T09:02:41.109Z,3.20
2022-10-17T09:05:28.247Z,2.80
2022-10-17T09:08:05.035Z,3.05
2022-10-17T09:10:47.019Z,3.28
2022-10-17T09:13:25.232Z,3.10
2022-10-17T09:16:07.397Z,3.03
2022-10-17T09:18:40.900Z,2.72
2022-10-17T09:21:20.468Z,2.90
2022-10-17T09:23:59.403Z,3.08
2022-10-17T09:26:39.919Z,3.35
2022-10-17T09:29:19.519Z,2.70
2022-10-17T09:31:53.238Z,2.95
2022-10-17T09:34:27.464Z,3.08
2022-10-17T09:36:56.309Z,3.45
2022-10-17T09:39:26.133Z,3.15
2022-10-17T09:41:56.486Z,3.00
2022-10-17T09:44:26.823Z,3.30
2022-10-17T09:47:06.839Z,3.00
2022-10-17T09:49:38.541Z,2.67
2022-10-17T09:52:13.590Z,3.20
2022-10-17T09:54:45.701Z,3.33
2022-10-17T09:57:15.266Z,2.95
2022-10-17T09:59:47.285Z,2.55
2022-10-17T10:02:19.607Z,2.60
2022-10-17T10:05:06.882Z,2.70
2022-10-17T10:07:38.497Z,2.80
2022-10-17T10:10:23.560Z,3.00
2022-10-17T10:13:06.259Z,2.80
2022-10-17T10:15:38.688Z,2.88
2022-10-17T10:18:32.331Z,2.80
2022-10-17T10:21:08.207Z,2.80
2022-10-17T10:23:39.998Z,2.85
2022-10-17T10:26:23.947Z,2.80
2022-10-17T10:28:58.799Z,2.78
2022-10-17T10:31:29.904Z,2.53
2022-10-17T10:34:00.358Z,2.63
2022-10-17T10:36:46.943Z,2.80
2022-10-17T10:39:29.315Z,2.70
2022-10-17T10:41:57.976Z,3.15
2022-10-17T10:44:28.396Z,2.90
2022-10-17T10:47:20.947Z,2.70
2022-10-17T10:49:51.559Z,2.88
2022-10-17T10:52:35.535Z,3.03
2022-10-17T10:55:15.712Z,2.90
2022-10-17T10:57:45.996Z,2.70
2022-10-17T11:00:18.598Z,2.80
2022-10-17T11:02:55.922Z,2.53
2022-10-17T11:05:35.997Z,2.70
2022-10-17T11:08:13.227Z,2.80
2022-10-17T11:10:52.124Z,2.50
2022-10-17T11:13:28.832Z,2.65
2022-10-17T11:16:08.435Z,2.63
2022-10-17T11:18:45.724Z,2.72
2022-10-17T11:21:17.706Z,2.90
2022-10-17T11:23:49.379Z,2.40
2022-10-17T11:26:26.656Z,2.58
2022-10-17T11:28:55.552Z,2.38
2022-10-17T11:31:28.355Z,2.30
2022-10-17T11:34:00.988Z,2.28
2022-10-17T11:36:32.361Z,2.50
2022-10-17T11:39:07.144Z,2.67
2022-10-17T11:41:42.532Z,2.45
2022-10-17T11:44:17.931Z,2.50
2022-10-17T11:46:51.276Z,2.60
2022-10-17T11:49:24.443Z,2.40
2022-10-17T11:52:00.343Z,2.38
2022-10-17T11:54:34.920Z,2.40
2022-10-17T11:57:15.849Z,2.35
2022-10-17T12:00:04.213Z,2.10
2022-10-17T12:02:42.762Z,2.53
2022-10-17T12:05:22.909Z,2.45
2022-10-17T12:07:56.694Z,2.60
2022-10-17T12:10:41.448Z,2.40
2022-10-17T12:15:57.121Z,2.50
2022-10-17T12:18:27.393Z,2.28
2022-10-17T12:20:58.376Z,2.30
2022-10-17T12:23:28.930Z,2.20
2022-10-17T12:26:04.665Z,2.33
2022-10-17T12:28:34.823Z,2.10
2022-10-17T12:31:06.536Z,2.53
2022-10-17T12:33:38.408Z,2.63
2022-10-17T12:36:45.554Z,2.50
2022-10-17T12:39:51.275Z,2.40
2022-10-17T12:42:33.878Z,2.55
2022-10-17T12:45:02.249Z,2.58
2022-10-17T12:47:39.960Z,2.60
2022-10-17T12:50:45.278Z,2.63
2022-10-17T12:53:19.483Z,2.78
2022-10-17T12:55:51.761Z,2.80
2022-10-17T12:58:21.579Z,2.85
2022-10-17T13:03:45.200Z,2.58
2022-10-17T13:06:20.470Z,2.40
2022-10-17T13:08:58.694Z,2.50
2022-10-17T13:11:32.858Z,2.80
2022-10-17T13:14:05.502Z,2.75
2022-10-17T13:16:36.753Z,2.70
2022-10-17T13:19:14.305Z,2.97
2022-10-17T13:21:51.428Z,2.55
2022-10-17T13:24:25.133Z,2.75
2022-10-17T13:26:53.435Z,2.70
2022-10-17T13:29:25.611Z,2.53
2022-10-17T13:31:56.168Z,2.30
2022-10-17T13:34:26.835Z,2.65
2022-10-17T13:36:57.490Z,2.72
2022-10-17T13:39:44.871Z,2.63
2022-10-17T13:42:23.935Z,2.50
2022-10-17T13:44:54.039Z,2.90
2022-10-17T13:47:23.941Z,2.58
2022-10-17T13:49:55.463Z,2.50
2022-10-17T13:52:29.228Z,2.42
2022-10-17T13:55:08.561Z,2.58
2022-10-17T13:57:36.947Z,2.47
2022-10-17T14:00:12.692Z,2.50
2022-10-17T14:02:42.403Z,2.90
2022-10-17T14:05:17.647Z,2.70
2022-10-17T14:08:11.312Z,2.70
2022-10-17T14:10:41.999Z,2.60
2022-10-17T14:13:21.988Z,2.60
2022-10-17T14:15:53.747Z,2.42
2022-10-17T14:18:25.333Z,2.55
2022-10-17T14:21:32.157Z,2.33
2022-10-17T14:23:44.842Z,2.60
2022-10-17T14:26:16.392Z,2.72
2022-10-17T14:28:46.498Z,2.60
2022-10-17T14:31:26.327Z,3.00
2022-10-17T14:33:55.602Z,2.70
2022-10-17T14:36:33.674Z,2.50
2022-10-17T14:39:02.770Z,2.33
2022-10-17T14:41:43.533Z,2.38
2022-10-17T14:44:20.576Z,2.33
2022-10-17T14:46:54.355Z,2.40
2022-10-17T14:49:32.620Z,2.50
2022-10-17T14:52:28.133Z,2.65
2022-10-17T14:54:58.139Z,2.72
2022-10-17T14:57:40.752Z,2.58
2022-10-17T15:00:11.647Z,2.83
2022-10-17T15:02:41.284Z,2.72
2022-10-17T15:05:13.196Z,2.60
2022-10-17T15:07:42.592Z,2.70
2022-10-17T15:10:31.693Z,2.60
2022-10-17T15:13:22.995Z,2.75
2022-10-17T15:15:51.803Z,2.28
2022-10-17T15:18:21.555Z,2.80
2022-10-17T15:20:55.462Z,2.40
2022-10-17T15:23:33.132Z,2.33
2022-10-17T15:26:01.890Z,2.70
2022-10-17T15:28:30.257Z,2.75
2022-10-17T15:30:58.717Z,2.50
2022-10-17T15:33:28.387Z,2.70
2022-10-17T15:38:29.942Z,2.90
2022-10-17T15:40:58.248Z,3.00
2022-10-17T15:43:26.547Z,2.72
2022-10-17T15:45:55.102Z,3.08
2022-10-17T15:48:30.652Z,2.72
2022-10-17T15:50:59.043Z,2.90
2022-10-17T15:53:27.434Z,3.45
2022-10-17T15:55:55.838Z,3.33
2022-10-17T15:58:24.174Z,2.80
2022-10-17T16:00:52.592Z,2.47
2022-10-17T16:05:51.605Z,2.60
2022-10-17T16:08:19.939Z,2.60
2022-10-17T16:10:48.361Z,2.78
2022-10-17T16:13:19.591Z,2.75
2022-10-17T16:15:48.054Z,2.50
2022-10-17T16:18:16.403Z,3.00
2022-10-17T16:20:44.816Z,3.88
2022-10-17T16:23:15.640Z,3.08
2022-10-17T16:25:44.090Z,2.97
2022-10-17T16:28:12.462Z,3.35
2022-10-17T16:30:45.951Z,3.58
2022-10-17T16:33:14.331Z,3.87
2022-10-17T16:35:42.856Z,3.70
2022-10-17T16:38:11.142Z,3.85
2022-10-17T16:40:40.918Z,4.22
2022-10-17T16:43:12.965Z,3.70
2022-10-17T16:45:41.793Z,3.83
2022-10-17T16:48:10.701Z,3.90
2022-10-17T16:50:40.949Z,4.10
2022-10-17T16:53:09.265Z,4.03
2022-10-17T16:55:37.551Z,3.50
2022-10-17T16:58:07.345Z,3.47
2022-10-17T17:00:35.711Z,3.50
2022-10-17T17:03:04.139Z,3.53
2022-10-17T17:05:32.428Z,3.38
2022-10-17T17:08:00.958Z,3.58
2022-10-17T17:10:29.313Z,3.17
2022-10-17T17:12:57.623Z,3.20
2022-10-17T17:15:27.254Z,2.95
2022-10-17T17:17:56.317Z,3.25
2022-10-17T17:20:25.067Z,3.25
2022-10-17T17:22:53.387Z,3.25
2022-10-17T17:25:22.307Z,3.30
2022-10-17T17:27:50.654Z,2.92
2022-10-17T17:30:19.235Z,3.28
2022-10-17T17:32:48.957Z,3.22
2022-10-17T17:35:17.491Z,2.90
2022-10-17T17:37:45.839Z,3.10
2022-10-17T17:40:14.554Z,2.75
2022-10-17T17:42:43.388Z,2.72
2022-10-17T17:45:12.543Z,2.88
2022-10-17T17:47:41.233Z,2.88
2022-10-17T17:50:11.183Z,2.80
2022-10-17T17:52:41.916Z,2.55
2022-10-17T17:55:10.718Z,2.90
2022-10-17T17:57:39.028Z,2.70
2022-10-17T18:00:08.701Z,2.65
2022-10-17T18:02:39.599Z,2.60
2022-10-17T18:05:11.930Z,2.60
2022-10-17T18:07:40.358Z,2.85
2022-10-17T18:12:38.160Z,2.75
2022-10-17T18:15:07.515Z,2.97
2022-10-17T18:17:36.081Z,3.10
2022-10-17T18:20:04.889Z,3.10
2022-10-17T18:22:35.583Z,2.50
2022-10-17T18:25:04.173Z,2.78
2022-10-17T18:27:32.485Z,2.97
2022-10-17T18:30:00.801Z,3.17
2022-10-17T18:32:32.016Z,3.22
2022-10-17T18:35:00.603Z,3.35
2022-10-17T18:37:29.014Z,3.05
2022-10-17T18:39:58.705Z,3.17
2022-10-17T18:42:27.229Z,2.83
2022-10-17T18:44:55.720Z,3.38
2022-10-17T18:47:24.010Z,3.70
2022-10-17T18:49:52.294Z,3.30
2022-10-17T18:52:20.684Z,3.50
2022-10-17T18:54:49.058Z,3.67
2022-10-17T18:57:21.467Z,3.50
2022-10-17T18:59:52.220Z,3.00
2022-10-17T19:02:20.660Z,2.95
2022-10-17T19:07:22.234Z,3.22
2022-10-17T19:09:50.620Z,2.92
2022-10-17T19:12:20.387Z,2.92
2022-10-17T19:14:50.584Z,3.08
2022-10-17T19:17:19.339Z,2.85
2022-10-17T19:19:50.023Z,2.40
2022-10-17T19:22:18.511Z,2.78
2022-10-17T19:24:46.815Z,2.40
2022-10-17T19:27:15.264Z,2.40
2022-10-17T19:29:45.071Z,2.88
2022-10-17T19:32:16.714Z,2.80
2022-10-17T19:34:47.530Z,2.88
2022-10-17T19:37:15.859Z,2.97
2022-10-17T19:39:44.173Z,2.67
2022-10-17T19:42:12.490Z,2.50
2022-10-17T19:44:40.794Z,2.78
2022-10-17T19:47:10.515Z,2.95
2022-10-17T19:49:38.974Z,2.72
2022-10-17T19:52:07.349Z,2.50
2022-10-17T19:54:35.679Z,3.00
2022-10-17T19:57:08.089Z,2.65
2022-10-17T19:59:38.786Z,2.92
2022-10-17T20:02:07.427Z,2.80
2022-10-17T20:04:42.099Z,3.00
2022-10-17T20:07:18.065Z,2.88
2022-10-17T20:09:46.385Z,2.63
2022-10-17T20:12:14.691Z,2.95
2022-10-17T20:14:42.963Z,2.80
2022-10-17T20:17:11.279Z,2.83
2022-10-17T20:19:40.969Z,3.08
2022-10-17T20:22:09.287Z,3.17
2022-10-17T20:24:39.978Z,3.47
2022-10-17T20:27:08.335Z,3.28
2022-10-17T20:29:36.629Z,3.20
2022-10-17T20:32:04.999Z,4.07
2022-10-17T20:34:35.561Z,4.75
2022-10-17T20:37:05.346Z,4.40
2022-10-17T20:39:33.632Z,4.30
2022-10-17T20:42:01.914Z,4.10
2022-10-17T20:44:30.537Z,3.42
2022-10-17T20:47:02.032Z,3.50
2022-10-17T20:49:31.573Z,3.60
2022-10-17T20:52:00.789Z,3.80
2022-10-17T20:54:31.019Z,3.45
2022-10-17T20:57:02.489Z,3.20
2022-10-17T20:59:34.265Z,3.17
2022-10-17T21:02:03.046Z,3.55
2022-10-17T21:04:47.480Z,3.03
2022-10-17T21:07:16.005Z,2.97
2022-10-17T21:09:46.278Z,3.30
2022-10-17T21:12:21.796Z,2.67
2022-10-17T21:14:59.815Z,3.17
2022-10-17T21:17:28.099Z,3.35
2022-10-17T21:19:56.925Z,3.33
2022-10-17T21:22:25.412Z,2.80
2022-10-17T21:24:55.099Z,2.40
2022-10-17T21:27:23.362Z,2.45
2022-10-17T21:29:51.973Z,2.55
2022-10-17T21:32:33.413Z,1.95
2022-10-17T21:35:08.970Z,1.90
2022-10-17T21:37:37.262Z,1.90
2022-10-17T21:40:08.297Z,2.10
2022-10-17T21:42:36.595Z,1.90
2022-10-17T21:45:10.748Z,1.75
2022-10-17T21:47:54.919Z,1.98
2022-10-17T21:50:29.469Z,1.80
2022-10-17T21:52:59.470Z,1.80
2022-10-17T21:55:29.091Z,1.60
2022-10-17T21:57:57.354Z,1.75
2022-10-17T22:00:25.652Z,2.03
2022-10-17T22:02:53.916Z,1.98
2022-10-17T22:05:22.231Z,1.98
2022-10-17T22:07:50.535Z,2.13
2022-10-17T22:10:18.824Z,2.10
2022-10-17T22:12:48.468Z,2.22
2022-10-17T22:15:16.888Z,2.08
2022-10-17T22:17:45.164Z,2.20
2022-10-17T22:20:13.491Z,2.00
2022-10-17T22:22:41.829Z,2.08
2022-10-17T22:25:34.976Z,2.20
2022-10-17T22:28:04.900Z,2.08
2022-10-17T22:30:33.213Z,2.10
2022-10-17T22:33:01.529Z,2.03
2022-10-17T22:35:29.858Z,2.05
2022-10-17T22:37:58.124Z,1.92
2022-10-17T22:40:26.395Z,2.15
2022-10-17T22:42:55.102Z,2.17
2022-10-17T22:45:24.871Z,1.80
2022-10-17T22:47:53.897Z,2.00
2022-10-17T22:50:22.961Z,1.90
2022-10-17T22:52:51.298Z,1.92
2022-10-17T22:55:19.607Z,1.90
2022-10-17T22:57:48.303Z,2.03
2022-10-17T23:00:17.904Z,2.00
2022-10-17T23:02:47.650Z,1.85
2022-10-17T23:05:16.038Z,2.00
2022-10-17T23:07:44.385Z,1.60
2022-10-17T23:10:12.690Z,1.85
2022-10-17T23:12:40.986Z,1.60
2022-10-17T23:15:10.401Z,1.63
2022-10-17T23:17:38.717Z,1.85
2022-10-17T23:20:09.534Z,2.10
2022-10-17T23:22:37.810Z,1.73
2022-10-17T23:25:06.944Z,1.70
2022-10-17T23:27:35.691Z,1.70
2022-10-17T23:30:04.966Z,1.88
2022-10-17T23:32:33.479Z,1.98
2022-10-17T23:35:01.890Z,1.80
2022-10-17T23:37:31.776Z,2.03
2022-10-17T23:40:00.244Z,1.75
2022-10-17T23:42:28.813Z,1.77
2022-10-17T23:44:57.154Z,1.90
2022-10-17T23:47:25.620Z,1.90
2022-10-17T23:49:53.934Z,1.77
2022-10-17T23:52:22.270Z,2.00
2022-10-17T23:54:51.937Z,2.00
2022-10-17T23:57:20.288Z,1.80
2022-10-17T23:59:48.631Z,2.17
